Time;durP1;ratioP1;P1;durP2;ratioP2;P2;SDS_P1;SDS_P2;PMS_P1;PMS_P2;Temp;Humidity;BMP_temperature;BMP_pressure;BME280_temperature;BME280_humidity;BME280_pressure;Samples;Min_cycle;Max_cycle;Signal;HPM_P1;HPM_P2
2022/07/28 00:01:04;;;;;;;4.07;1.90;;;;;;;;;;5076480;28;20043;-69
2022/07/28 00:03:30;;;;;;;6.43;2.22;;;;;;;;;;5059127;28;20036;-69
2022/07/28 00:05:56;;;;;;;6.50;2.28;;;;;;;;;;5076953;28;20116;-69
2022/07/28 00:08:22;;;;;;;5.68;2.30;;;;;;;;;;5075758;28;20040;-69
2022/07/28 00:10:48;;;;;;;6.10;2.42;;;;;;;;;;5075622;28;20090;-69
2022/07/28 00:13:14;;;;;;;6.47;2.60;;;;;;;;;;5093722;28;20040;-69
2022/07/28 00:15:40;;;;;;;8.85;2.83;;;;;;;;;;5076004;28;20044;-70
2022/07/28 00:18:06;;;;;;;6.93;2.40;;;;;;;;;;5076435;28;20036;-69
2022/07/28 00:20:32;;;;;;;6.90;2.97;;;;;;;;;;5074811;28;20047;-69
2022/07/28 00:22:59;;;;;;;13.88;2.63;;;;;;;;;;5039184;28;20048;-69
2022/07/28 00:25:25;;;;;;;6.30;2.45;;;;;;;;;;5074911;28;20051;-69
2022/07/28 00:27:52;;;;;;;7.25;2.50;;;;;;;;;;5062103;28;20036;-69
2022/07/28 00:30:18;;;;;;;5.47;2.30;;;;;;;;;;5075222;28;20074;-69
2022/07/28 00:32:45;;;;;;;6.45;2.70;;;;;;;;;;5075848;28;20071;-69
2022/07/28 00:35:11;;;;;;;4.88;2.20;;;;;;;;;;5058889;28;20032;-69
2022/07/28 00:37:37;;;;;;;4.90;2.17;;;;;;;;;;5075418;28;20127;-69
2022/07/28 00:40:03;;;;;;;5.55;2.47;;;;;;;;;;5074137;28;20526;-69
2022/07/28 00:42:30;;;;;;;6.32;2.80;;;;;;;;;;5075657;28;20044;-69
2022/07/28 00:44:56;;;;;;;8.05;2.60;;;;;;;;;;5075314;28;20040;-69
2022/07/28 00:47:22;;;;;;;3.83;2.38;;;;;;;;;;5075301;28;20047;-69
2022/07/28 00:49:49;;;;;;;8.68;2.95;;;;;;;;;;5058910;28;20047;-69
2022/07/28 00:52:16;;;;;;;4.75;2.28;;;;;;;;;;5092824;28;20493;-69
2022/07/28 00:54:42;;;;;;;5.22;2.17;;;;;;;;;;5075318;28;20071;-69
2022/07/28 00:57:08;;;;;;;6.07;2.55;;;;;;;;;;5093007;28;20036;-69
2022/07/28 00:59:35;;;;;;;4.82;2.60;;;;;;;;;;5075258;28;20074;-70
2022/07/28 01:02:01;;;;;;;5.85;2.85;;;;;;;;;;5074817;28;20388;-69
2022/07/28 01:04:27;;;;;;;4.53;2.60;;;;;;;;;;5075090;28;20129;-69
2022/07/28 01:06:57;;;;;;;5.93;2.58;;;;;;;;;;5058563;28;20397;-69
2022/07/28 01:09:30;;;;;;;5.50;2.30;;;;;;;;;;5074723;28;20051;-69
2022/07/28 01:12:15;;;;;;;5.00;2.55;;;;;;;;;;5075004;28;20127;-69
2022/07/28 01:14:47;;;;;;;4.95;2.75;;;;;;;;;;5063453;28;20067;-69
2022/07/28 01:17:14;;;;;;;5.85;2.75;;;;;;;;;;5074530;28;20055;-69
2022/07/28 01:19:48;;;;;;;5.80;2.70;;;;;;;;;;5074133;28;20115;-69
2022/07/28 01:22:16;;;;;;;6.22;2.67;;;;;;;;;;5074758;28;20115;-69
2022/07/28 01:24:42;;;;;;;6.30;2.97;;;;;;;;;;5074187;28;20040;-69
2022/07/28 01:27:22;;;;;;;5.68;2.70;;;;;;;;;;5077796;28;20411;-69
2022/07/28 01:29:58;;;;;;;6.50;3.10;;;;;;;;;;5080145;28;20481;-69
2022/07/28 01:32:25;;;;;;;7.53;3.60;;;;;;;;;;5056843;28;20101;-69
2022/07/28 01:34:55;;;;;;;8.15;3.30;;;;;;;;;;5074366;28;20485;-69
2022/07/28 01:37:24;;;;;;;6.57;3.20;;;;;;;;;;5073868;28;20123;-69
2022/07/28 01:39:53;;;;;;;6.32;3.30;;;;;;;;;;5071776;28;20028;-69
2022/07/28 01:42:22;;;;;;;5.25;3.10;;;;;;;;;;5063746;28;20039;-69
2022/07/28 01:44:50;;;;;;;8.23;3.50;;;;;;;;;;5092541;28;20480;-70
2022/07/28 01:47:17;;;;;;;4.95;2.78;;;;;;;;;;5092843;28;20036;-69
2022/07/28 01:49:44;;;;;;;4.53;3.00;;;;;;;;;;5082388;28;20039;-69
2022/07/28 01:52:11;;;;;;;5.93;3.17;;;;;;;;;;5074051;28;20039;-69
2022/07/28 01:54:38;;;;;;;6.68;3.13;;;;;;;;;;5074168;28;20127;-69
2022/07/28 01:57:05;;;;;;;5.22;3.33;;;;;;;;;;5074213;28;20040;-69
2022/07/28 01:59:31;;;;;;;5.20;3.17;;;;;;;;;;5073742;28;20454;-69
2022/07/28 02:01:59;;;;;;;8.23;2.95;;;;;;;;;;5069948;28;20052;-69
2022/07/28 02:04:26;;;;;;;4.93;2.65;;;;;;;;;;5063386;28;20043;-69
2022/07/28 02:06:53;;;;;;;4.28;2.58;;;;;;;;;;5060668;28;20032;-69
2022/07/28 02:09:20;;;;;;;5.47;2.80;;;;;;;;;;5064445;28;20044;-69
2022/07/28 02:11:48;;;;;;;5.32;2.60;;;;;;;;;;5070050;28;20437;-69
2022/07/28 02:14:16;;;;;;;5.55;2.60;;;;;;;;;;5060343;28;20049;-69
2022/07/28 02:16:47;;;;;;;5.95;3.20;;;;;;;;;;5092173;28;20044;-69
2022/07/28 02:19:14;;;;;;;6.78;2.97;;;;;;;;;;5074410;28;20046;-69
2022/07/28 02:21:41;;;;;;;5.35;2.75;;;;;;;;;;5067601;28;20036;-69
2022/07/28 02:24:08;;;;;;;5.78;3.00;;;;;;;;;;5067714;28;20125;-69
2022/07/28 02:26:41;;;;;;;5.10;2.80;;;;;;;;;;5059316;28;20097;-69
2022/07/28 02:29:08;;;;;;;5.75;3.08;;;;;;;;;;5081730;28;20066;-69
2022/07/28 02:31:39;;;;;;;8.57;3.15;;;;;;;;;;5073896;28;20466;-69
2022/07/28 02:34:06;;;;;;;7.55;3.60;;;;;;;;;;5074403;28;20400;-69
2022/07/28 02:36:41;;;;;;;5.22;3.35;;;;;;;;;;5072978;28;20048;-69
2022/07/28 02:39:22;;;;;;;5.50;3.05;;;;;;;;;;5049605;28;20481;-70
2022/07/28 02:41:49;;;;;;;5.72;3.22;;;;;;;;;;5073564;28;20101;-69
2022/07/28 02:44:17;;;;;;;5.22;2.90;;;;;;;;;;5093038;28;20032;-70
2022/07/28 02:46:45;;;;;;;5.20;3.15;;;;;;;;;;5077710;28;20089;-70
2022/07/28 02:49:14;;;;;;;4.70;3.00;;;;;;;;;;5077628;28;20051;-69
2022/07/28 02:51:41;;;;;;;5.68;3.08;;;;;;;;;;5077423;28;20048;-69
2022/07/28 02:54:07;;;;;;;7.68;3.15;;;;;;;;;;5076564;28;20388;-69
2022/07/28 02:56:34;;;;;;;4.53;2.80;;;;;;;;;;5077376;28;20047;-69
2022/07/28 02:59:00;;;;;;;4.40;2.88;;;;;;;;;;5095828;28;20124;-69
2022/07/28 03:01:26;;;;;;;5.97;3.08;;;;;;;;;;5095758;28;20036;-69
2022/07/28 03:03:53;;;;;;;4.68;2.97;;;;;;;;;;5095204;28;20035;-69
2022/07/28 03:06:21;;;;;;;8.05;3.10;;;;;;;;;;5077365;28;20070;-69
2022/07/28 03:08:49;;;;;;;6.50;3.20;;;;;;;;;;5060550;28;20039;-70
2022/07/28 03:11:15;;;;;;;6.35;2.90;;;;;;;;;;5078061;28;20492;-69
2022/07/28 03:13:41;;;;;;;5.45;2.95;;;;;;;;;;5067838;28;20149;-69
2022/07/28 03:16:08;;;;;;;4.45;2.63;;;;;;;;;;5077474;28;20044;-69
2022/07/28 03:18:34;;;;;;;5.07;3.03;;;;;;;;;;5095268;28;20050;-69
2022/07/28 03:21:00;;;;;;;5.70;3.40;;;;;;;;;;5077412;28;20075;-69
2022/07/28 03:23:29;;;;;;;5.22;2.45;;;;;;;;;;5077261;28;20044;-69
2022/07/28 03:26:00;;;;;;;5.95;3.33;;;;;;;;;;5076230;28;20059;-69
2022/07/28 03:28:26;;;;;;;5.60;3.30;;;;;;;;;;5065507;28;20051;-69
2022/07/28 03:31:04;;;;;;;7.55;3.10;;;;;;;;;;5076640;28;20506;-69
2022/07/28 03:33:30;;;;;;;6.47;2.78;;;;;;;;;;5077307;28;20479;-69
2022/07/28 03:35:57;;;;;;;5.57;3.22;;;;;;;;;;5076891;28;20125;-69
2022/07/28 03:38:27;;;;;;;5.38;3.13;;;;;;;;;;5076943;28;20498;-69
2022/07/28 03:40:55;;;;;;;5.18;2.88;;;;;;;;;;5060045;28;20047;-69
2022/07/28 03:43:23;;;;;;;5.43;2.70;;;;;;;;;;5076975;28;20544;-69
2022/07/28 03:45:49;;;;;;;5.18;3.03;;;;;;;;;;5060246;28;20044;-69
2022/07/28 03:48:16;;;;;;;6.13;2.97;;;;;;;;;;5076714;28;20105;-69
2022/07/28 03:50:42;;;;;;;5.80;3.40;;;;;;;;;;5059636;28;20040;-69
2022/07/28 03:53:21;;;;;;;5.18;3.00;;;;;;;;;;5059780;28;20044;-69
2022/07/28 03:55:49;;;;;;;6.53;3.08;;;;;;;;;;5075610;28;20047;-69
2022/07/28 03:58:19;;;;;;;5.88;3.15;;;;;;;;;;5076742;28;20378;-69
2022/07/28 04:00:45;;;;;;;4.75;3.00;;;;;;;;;;5076260;28;20047;-68
2022/07/28 04:03:11;;;;;;;5.50;2.60;;;;;;;;;;5091211;28;20042;-69
2022/07/28 04:05:38;;;;;;;7.63;3.28;;;;;;;;;;5074217;28;20495;-70
2022/07/28 04:08:04;;;;;;;5.70;2.80;;;;;;;;;;5051151;28;20033;-69
2022/07/28 04:10:30;;;;;;;4.63;2.63;;;;;;;;;;5055850;28;20040;-70
2022/07/28 04:12:57;;;;;;;5.70;2.90;;;;;;;;;;5075957;28;20039;-69
2022/07/28 04:15:24;;;;;;;7.35;3.35;;;;;;;;;;5068670;28;20036;-70
2022/07/28 04:17:50;;;;;;;7.95;3.38;;;;;;;;;;5074526;28;20107;-69
2022/07/28 04:20:17;;;;;;;5.32;2.35;;;;;;;;;;5076212;28;20036;-69
2022/07/28 04:22:44;;;;;;;4.35;2.60;;;;;;;;;;5075158;28;20044;-80
2022/07/28 04:25:11;;;;;;;5.30;2.95;;;;;;;;;;5094278;28;20043;-69
2022/07/28 04:27:38;;;;;;;4.10;2.70;;;;;;;;;;5081063;28;20047;-69
2022/07/28 04:30:05;;;;;;;6.15;3.30;;;;;;;;;;5051640;28;20481;-69
2022/07/28 04:32:31;;;;;;;6.78;3.03;;;;;;;;;;5062568;28;20046;-69
2022/07/28 04:34:57;;;;;;;11.25;3.30;;;;;;;;;;5067794;28;20036;-69
2022/07/28 04:37:23;;;;;;;7.72;2.83;;;;;;;;;;5069089;28;20041;-69
2022/07/28 04:39:49;;;;;;;9.05;3.20;;;;;;;;;;5086402;28;20384;-69
2022/07/28 04:42:17;;;;;;;6.78;3.10;;;;;;;;;;5075926;28;20028;-69
2022/07/28 04:44:44;;;;;;;5.38;2.70;;;;;;;;;;5070595;28;20055;-69
2022/07/28 04:47:12;;;;;;;7.45;3.30;;;;;;;;;;5076496;28;20055;-69
2022/07/28 04:49:38;;;;;;;4.75;2.90;;;;;;;;;;5070762;28;20516;-69
2022/07/28 04:52:07;;;;;;;5.50;3.10;;;;;;;;;;5078919;28;20092;-70
2022/07/28 04:54:33;;;;;;;8.80;3.08;;;;;;;;;;5064884;28;20389;-69
2022/07/28 04:56:59;;;;;;;7.63;3.30;;;;;;;;;;5073518;28;20127;-69
2022/07/28 04:59:26;;;;;;;5.82;3.08;;;;;;;;;;5071043;28;20491;-69
2022/07/28 05:01:52;;;;;;;5.13;2.83;;;;;;;;;;5063580;28;20071;-69
2022/07/28 05:04:18;;;;;;;5.05;2.40;;;;;;;;;;5090810;28;20040;-69
2022/07/28 05:06:44;;;;;;;7.32;3.08;;;;;;;;;;5085560;28;20067;-69
2022/07/28 05:09:10;;;;;;;4.57;2.33;;;;;;;;;;5070160;28;20043;-69
2022/07/28 05:11:36;;;;;;;6.53;2.15;;;;;;;;;;5060095;28;20123;-70
2022/07/28 05:14:02;;;;;;;4.93;2.10;;;;;;;;;;5061968;28;20476;-70
2022/07/28 05:16:28;;;;;;;5.20;1.98;;;;;;;;;;5074963;28;20040;-70
2022/07/28 05:18:54;;;;;;;3.10;1.83;;;;;;;;;;5073978;28;20044;-70
2022/07/28 05:21:20;;;;;;;11.27;1.90;;;;;;;;;;5065233;28;20105;-70
2022/07/28 05:23:47;;;;;;;3.90;1.70;;;;;;;;;;5074833;28;20084;-70
2022/07/28 05:26:13;;;;;;;6.93;1.20;;;;;;;;;;5073954;28;20043;-71
2022/07/28 05:28:40;;;;;;;7.45;1.52;;;;;;;;;;5075830;28;20039;-71
2022/07/28 05:31:09;;;;;;;7.88;1.33;;;;;;;;;;5074044;28;20443;-71
2022/07/28 05:33:35;;;;;;;2.65;1.02;;;;;;;;;;5074884;28;20048;-71
2022/07/28 05:36:02;;;;;;;2.28;1.00;;;;;;;;;;5057603;28;20044;-71
2022/07/28 05:38:29;;;;;;;4.78;1.23;;;;;;;;;;5074611;28;20079;-71
2022/07/28 05:40:55;;;;;;;4.03;1.20;;;;;;;;;;5074288;28;20064;-71
2022/07/28 05:43:21;;;;;;;3.72;1.25;;;;;;;;;;5074570;28;20065;-71
2022/07/28 05:45:47;;;;;;;2.83;1.08;;;;;;;;;;5092254;28;20047;-71
2022/07/28 05:48:16;;;;;;;2.72;1.00;;;;;;;;;;5072698;28;20036;-71
2022/07/28 05:50:42;;;;;;;4.72;1.25;;;;;;;;;;5064455;28;20124;-71
2022/07/28 05:53:08;;;;;;;6.88;1.10;;;;;;;;;;5082047;28;20032;-71
2022/07/28 05:55:34;;;;;;;3.75;1.40;;;;;;;;;;5093068;28;20050;-71
2022/07/28 05:58:00;;;;;;;3.95;1.42;;;;;;;;;;5062584;28;20492;-71
2022/07/28 06:00:26;;;;;;;2.92;1.23;;;;;;;;;;5076119;28;20044;-71
2022/07/28 06:02:53;;;;;;;2.75;1.20;;;;;;;;;;5091868;28;20753;-71
2022/07/28 06:05:20;;;;;;;3.40;1.27;;;;;;;;;;5088336;28;20499;-71
2022/07/28 06:07:48;;;;;;;3.65;1.30;;;;;;;;;;5081147;28;20123;-70
2022/07/28 06:10:14;;;;;;;3.17;1.02;;;;;;;;;;5070730;28;20581;-71
2022/07/28 06:12:41;;;;;;;3.08;1.15;;;;;;;;;;5072415;28;20072;-71
2022/07/28 06:15:11;;;;;;;3.67;1.20;;;;;;;;;;5063823;28;20050;-71
2022/07/28 06:17:37;;;;;;;3.20;1.35;;;;;;;;;;5091135;28;20040;-71
2022/07/28 06:20:03;;;;;;;3.05;1.20;;;;;;;;;;5090523;28;20082;-71
2022/07/28 06:22:39;;;;;;;3.17;1.35;;;;;;;;;;5071929;28;20085;-71
2022/07/28 06:25:06;;;;;;;3.58;1.50;;;;;;;;;;5037201;28;20037;-71
2022/07/28 06:27:33;;;;;;;4.80;1.30;;;;;;;;;;5037643;28;20075;-71
2022/07/28 06:29:59;;;;;;;3.47;1.42;;;;;;;;;;5055015;28;20123;-71
2022/07/28 06:32:25;;;;;;;7.07;1.55;;;;;;;;;;5056541;28;20043;-71
2022/07/28 06:34:51;;;;;;;3.88;1.50;;;;;;;;;;5068167;28;20048;-71
2022/07/28 06:37:17;;;;;;;2.88;1.20;;;;;;;;;;5053741;28;20489;-71
2022/07/28 06:39:43;;;;;;;3.65;1.33;;;;;;;;;;5047907;28;20065;-70
2022/07/28 06:42:10;;;;;;;2.58;1.13;;;;;;;;;;5032704;28;20049;-71
2022/07/28 06:44:36;;;;;;;2.78;1.30;;;;;;;;;;5031911;28;20498;-71
2022/07/28 06:47:02;;;;;;;5.00;1.25;;;;;;;;;;5041191;28;20444;-71
2022/07/28 06:49:28;;;;;;;4.68;1.65;;;;;;;;;;5041856;28;20127;-71
2022/07/28 06:51:54;;;;;;;4.82;1.40;;;;;;;;;;5040087;28;20048;-71
2022/07/28 06:54:20;;;;;;;4.68;1.25;;;;;;;;;;5059735;28;20044;-71
2022/07/28 06:56:46;;;;;;;5.10;1.77;;;;;;;;;;5043538;28;20477;-72
2022/07/28 06:59:14;;;;;;;3.42;1.30;;;;;;;;;;5053191;28;20051;-71
2022/07/28 07:01:40;;;;;;;4.07;1.40;;;;;;;;;;5055562;28;20049;-72
2022/07/28 07:04:09;;;;;;;4.05;1.30;;;;;;;;;;5031131;28;20607;-71
2022/07/28 07:06:35;;;;;;;5.40;1.15;;;;;;;;;;5043755;28;20059;-71
2022/07/28 07:09:01;;;;;;;1.70;0.98;;;;;;;;;;5024086;28;20136;-71
2022/07/28 07:11:27;;;;;;;6.43;1.17;;;;;;;;;;5041128;28;20053;-72
2022/07/28 07:13:53;;;;;;;3.67;1.08;;;;;;;;;;5049295;28;20036;-71
2022/07/28 07:16:19;;;;;;;5.90;1.20;;;;;;;;;;5052902;28;20516;-71
2022/07/28 07:18:47;;;;;;;3.88;1.15;;;;;;;;;;5053661;28;20044;-71
2022/07/28 07:21:13;;;;;;;6.60;1.10;;;;;;;;;;5053202;28;20044;-72
2022/07/28 07:23:40;;;;;;;2.85;1.15;;;;;;;;;;5062751;28;20052;-72
2022/07/28 07:26:06;;;;;;;4.32;1.13;;;;;;;;;;5070500;28;20542;-69
2022/07/28 07:28:33;;;;;;;2.78;1.00;;;;;;;;;;5063565;28;20127;-72
2022/07/28 07:30:59;;;;;;;5.70;1.05;;;;;;;;;;5088755;28;20040;-72
2022/07/28 07:33:25;;;;;;;4.13;1.08;;;;;;;;;;5076856;28;20048;-73
2022/07/28 07:35:51;;;;;;;4.78;1.00;;;;;;;;;;5076560;28;20039;-79
2022/07/28 07:38:17;;;;;;;4.65;1.10;;;;;;;;;;5073734;28;20127;-79
2022/07/28 07:40:44;;;;;;;5.60;1.00;;;;;;;;;;5070916;28;20555;-80
2022/07/28 07:43:10;;;;;;;3.25;0.80;;;;;;;;;;5067558;28;20095;-80
2022/07/28 07:45:36;;;;;;;5.63;1.45;;;;;;;;;;5076287;28;20028;-80
2022/07/28 07:48:02;;;;;;;3.17;0.90;;;;;;;;;;5086013;28;20484;-78
2022/07/28 07:50:29;;;;;;;3.47;0.98;;;;;;;;;;5091132;28;20095;-80
2022/07/28 07:52:55;;;;;;;6.22;1.20;;;;;;;;;;5101472;28;20033;-79
2022/07/28 07:55:21;;;;;;;4.00;0.88;;;;;;;;;;5055041;28;20044;-80
2022/07/28 07:57:48;;;;;;;3.70;0.90;;;;;;;;;;5083282;28;20043;-80
2022/07/28 08:00:14;;;;;;;3.25;0.90;;;;;;;;;;5108255;28;20609;-79
2022/07/28 08:02:41;;;;;;;3.00;0.80;;;;;;;;;;5080987;28;20067;-79
2022/07/28 08:05:07;;;;;;;4.20;1.10;;;;;;;;;;5076292;28;20039;-72
2022/07/28 08:07:33;;;;;;;2.15;0.70;;;;;;;;;;5050216;28;20044;-73
2022/07/28 08:10:00;;;;;;;3.53;0.70;;;;;;;;;;5061868;28;20094;-72
2022/07/28 08:12:26;;;;;;;4.50;0.82;;;;;;;;;;5081827;28;20044;-72
2022/07/28 08:14:52;;;;;;;5.35;0.98;;;;;;;;;;5058504;28;20040;-72
2022/07/28 08:17:18;;;;;;;5.20;1.00;;;;;;;;;;5074333;28;20224;-75
2022/07/28 08:19:44;;;;;;;4.63;0.98;;;;;;;;;;5075482;28;20553;-73
2022/07/28 08:22:10;;;;;;;4.38;1.00;;;;;;;;;;5093707;28;20089;-72
2022/07/28 08:24:37;;;;;;;5.10;1.27;;;;;;;;;;5076468;28;20135;-69
2022/07/28 08:27:03;;;;;;;5.60;1.10;;;;;;;;;;5095707;28;20048;-74
2022/07/28 08:29:29;;;;;;;4.68;1.10;;;;;;;;;;5075314;28;20104;-73
2022/07/28 08:31:56;;;;;;;3.20;0.90;;;;;;;;;;5076510;28;20544;-73
2022/07/28 08:34:22;;;;;;;4.35;1.23;;;;;;;;;;5093722;28;20040;-72
2022/07/28 08:36:48;;;;;;;5.90;0.90;;;;;;;;;;5075549;28;20043;-73
2022/07/28 08:39:14;;;;;;;4.07;1.00;;;;;;;;;;5058788;28;20561;-73
2022/07/28 08:41:44;;;;;;;5.13;0.82;;;;;;;;;;5074864;28;20032;-74
2022/07/28 08:44:14;;;;;;;3.25;1.00;;;;;;;;;;5075595;28;20048;-73
2022/07/28 08:46:42;;;;;;;5.32;0.80;;;;;;;;;;5058774;28;20485;-74
2022/07/28 08:49:08;;;;;;;3.33;0.80;;;;;;;;;;5093886;28;20032;-74
2022/07/28 08:51:36;;;;;;;3.03;0.77;;;;;;;;;;5093722;28;20063;-75
2022/07/28 08:54:02;;;;;;;2.00;0.80;;;;;;;;;;5075975;28;20043;-74
2022/07/28 08:56:28;;;;;;;3.85;0.95;;;;;;;;;;5059023;28;20493;-75
2022/07/28 08:58:55;;;;;;;3.10;1.00;;;;;;;;;;5074142;28;20032;-73
2022/07/28 09:01:22;;;;;;;5.47;1.00;;;;;;;;;;5059045;28;20492;-77
2022/07/28 09:03:49;;;;;;;2.55;0.88;;;;;;;;;;5075194;28;20036;-74
2022/07/28 09:06:16;;;;;;;4.68;0.88;;;;;;;;;;5059006;28;20047;-74
2022/07/28 09:08:42;;;;;;;3.47;0.93;;;;;;;;;;5075064;28;20047;-75
2022/07/28 09:11:08;;;;;;;2.13;0.70;;;;;;;;;;5075210;28;20123;-75
2022/07/28 09:13:34;;;;;;;2.67;0.80;;;;;;;;;;5077278;28;20439;-76
2022/07/28 09:16:00;;;;;;;3.17;0.77;;;;;;;;;;5057372;28;20123;-76
2022/07/28 09:18:27;;;;;;;1.60;0.70;;;;;;;;;;5078927;28;20100;-77
2022/07/28 09:20:53;;;;;;;3.42;1.20;;;;;;;;;;5072574;28;20614;-78
2022/07/28 09:23:19;;;;;;;4.53;0.90;;;;;;;;;;5043237;28;20049;-75
2022/07/28 09:25:46;;;;;;;4.72;0.88;;;;;;;;;;5069476;28;20052;-83
2022/07/28 09:28:13;;;;;;;2.92;0.80;;;;;;;;;;5080436;28;20068;-74
2022/07/28 09:30:40;;;;;;;3.78;0.90;;;;;;;;;;5074629;28;20048;-82
2022/07/28 09:33:13;;;;;;;3.63;0.80;;;;;;;;;;5077248;28;20404;-73
2022/07/28 09:35:50;;;;;;;2.22;0.80;;;;;;;;;;5082727;28;20096;-77
2022/07/28 09:38:16;;;;;;;4.97;1.17;;;;;;;;;;5060785;28;20050;-76
2022/07/28 09:40:44;;;;;;;2.83;0.90;;;;;;;;;;5075470;28;20039;-76
2022/07/28 09:43:10;;;;;;;2.55;0.90;;;;;;;;;;5074852;28;20040;-76
2022/07/28 09:45:36;;;;;;;2.25;0.68;;;;;;;;;;5069939;28;20040;-78
2022/07/28 09:48:12;;;;;;;5.60;1.10;;;;;;;;;;5065393;28;20047;-79
2022/07/28 09:50:41;;;;;;;4.93;0.90;;;;;;;;;;5071007;28;20044;-77
2022/07/28 09:53:26;;;;;;;2.58;0.73;;;;;;;;;;5091230;28;20032;-77
2022/07/28 09:55:56;;;;;;;4.75;1.00;;;;;;;;;;5062169;28;20032;-78
2022/07/28 09:58:22;;;;;;;5.35;1.35;;;;;;;;;;5089411;28;20039;-79
2022/07/28 10:00:48;;;;;;;4.50;1.15;;;;;;;;;;5081552;28;20063;-77
2022/07/28 10:03:25;;;;;;;6.35;1.40;;;;;;;;;;5090639;28;20040;-77
2022/07/28 10:05:51;;;;;;;3.92;1.15;;;;;;;;;;5090543;28;20073;-77
2022/07/28 10:08:17;;;;;;;2.25;1.08;;;;;;;;;;5088298;28;20126;-73
2022/07/28 10:10:58;;;;;;;3.63;1.00;;;;;;;;;;5092229;28;20395;-69
2022/07/28 10:13:24;;;;;;;3.03;1.00;;;;;;;;;;5076946;28;20045;-73
2022/07/28 10:16:10;;;;;;;3.63;0.85;;;;;;;;;;5054311;28;20032;-69
2022/07/28 10:18:36;;;;;;;3.70;1.15;;;;;;;;;;5064877;28;20047;-73
2022/07/28 10:21:03;;;;;;;4.75;1.10;;;;;;;;;;5057564;28;20036;-74
2022/07/28 10:23:29;;;;;;;3.20;1.00;;;;;;;;;;5072803;28;20090;-69
2022/07/28 10:25:56;;;;;;;2.55;0.82;;;;;;;;;;5038873;28;20093;-73
2022/07/28 10:28:22;;;;;;;1.92;0.77;;;;;;;;;;5079041;28;20051;-71
2022/07/28 10:30:50;;;;;;;3.00;0.90;;;;;;;;;;5073982;28;20077;-73
2022/07/28 10:33:18;;;;;;;2.92;0.98;;;;;;;;;;5074183;28;20038;-70
2022/07/28 10:35:45;;;;;;;5.35;1.00;;;;;;;;;;5056648;28;20519;-73
2022/07/28 10:38:12;;;;;;;3.17;0.95;;;;;;;;;;5073186;28;20047;-71
2022/07/28 10:40:40;;;;;;;4.47;0.90;;;;;;;;;;5073387;28;20043;-69
2022/07/28 10:43:07;;;;;;;3.38;0.93;;;;;;;;;;5074108;28;20036;-72
2022/07/28 10:45:34;;;;;;;1.92;0.85;;;;;;;;;;5056968;28;20489;-72
2022/07/28 10:48:02;;;;;;;2.20;0.80;;;;;;;;;;5073237;28;20527;-73
2022/07/28 10:50:29;;;;;;;2.78;0.80;;;;;;;;;;5074189;28;20052;-71
2022/07/28 10:52:55;;;;;;;4.20;0.90;;;;;;;;;;5073790;28;20496;-73
2022/07/28 10:55:40;;;;;;;3.90;0.90;;;;;;;;;;5072983;28;20076;-73
2022/07/28 10:58:11;;;;;;;2.20;0.80;;;;;;;;;;5071057;28;20116;-73
2022/07/28 11:00:43;;;;;;;2.30;1.02;;;;;;;;;;5067750;28;20611;-79
2022/07/28 11:03:09;;;;;;;5.45;1.20;;;;;;;;;;5065412;28;20048;-84
2022/07/28 11:05:37;;;;;;;2.50;0.80;;;;;;;;;;5056866;28;20403;-75
2022/07/28 11:08:05;;;;;;;35.60;8.73;;;;;;;;;;5064991;28;20116;-73
2022/07/28 11:10:42;;;;;;;5.50;1.55;;;;;;;;;;5059364;28;20032;-75
2022/07/28 11:13:22;;;;;;;3.35;0.80;;;;;;;;;;5068663;28;20036;-74
2022/07/28 11:15:48;;;;;;;3.50;0.93;;;;;;;;;;5076827;28;20385;-78
2022/07/28 11:18:14;;;;;;;5.32;1.00;;;;;;;;;;5076855;28;20408;-74
2022/07/28 11:20:55;;;;;;;8.07;1.30;;;;;;;;;;5088346;28;20044;-74
2022/07/28 11:23:36;;;;;;;3.65;0.95;;;;;;;;;;5077174;28;20077;-78
2022/07/28 11:29:02;;;;;;;3.58;1.08;;;;;;;;;;5081720;28;20446;-74
2022/07/28 11:31:46;;;;;;;2.83;0.93;;;;;;;;;;5071781;28;20059;-74
2022/07/28 11:34:16;;;;;;;2.33;0.85;;;;;;;;;;5075801;28;20480;-74
2022/07/28 11:37:11;;;;;;;2.42;0.90;;;;;;;;;;5061808;28;20036;-74
2022/07/28 11:39:38;;;;;;;1.48;0.80;;;;;;;;;;5077543;28;20086;-73
2022/07/28 11:42:23;;;;;;;4.03;0.85;;;;;;;;;;5079760;28;20067;-74
2022/07/28 11:44:49;;;;;;;3.58;1.00;;;;;;;;;;5092110;28;20063;-77
2022/07/28 11:47:19;;;;;;;3.45;1.08;;;;;;;;;;5081150;28;20565;-74
2022/07/28 11:50:05;;;;;;;6.07;1.08;;;;;;;;;;5065989;28;20032;-74
2022/07/28 11:52:32;;;;;;;5.45;1.02;;;;;;;;;;5090519;28;20559;-74
2022/07/28 11:54:58;;;;;;;1.83;0.90;;;;;;;;;;5108821;28;20737;-76
2022/07/28 11:57:25;;;;;;;2.65;1.02;;;;;;;;;;5087501;28;20042;-73
2022/07/28 11:59:52;;;;;;;3.03;0.82;;;;;;;;;;5088172;28;20490;-75
2022/07/28 12:02:23;;;;;;;4.60;1.05;;;;;;;;;;5071241;28;20039;-74
2022/07/28 12:04:56;;;;;;;4.05;1.08;;;;;;;;;;5076255;28;20036;-75
2022/07/28 12:07:36;;;;;;;2.67;1.00;;;;;;;;;;5063585;28;20124;-75
2022/07/28 12:10:21;;;;;;;2.55;1.00;;;;;;;;;;5072024;28;20040;-75
2022/07/28 12:12:51;;;;;;;2.57;0.90;;;;;;;;;;5102784;28;20119;-76
2022/07/28 12:15:18;;;;;;;3.22;1.00;;;;;;;;;;5094941;28;20290;-74
2022/07/28 12:17:44;;;;;;;3.53;1.00;;;;;;;;;;5044978;28;20032;-78
2022/07/28 12:20:12;;;;;;;4.28;1.20;;;;;;;;;;5075952;28;20042;-78
2022/07/28 12:22:38;;;;;;;4.00;1.00;;;;;;;;;;5060140;28;20426;-80
2022/07/28 12:25:04;;;;;;;1.65;0.90;;;;;;;;;;5075740;28;20097;-75
2022/07/28 12:27:31;;;;;;;3.67;0.80;;;;;;;;;;5081145;28;20043;-74
2022/07/28 12:30:00;;;;;;;2.72;1.00;;;;;;;;;;5058765;28;20040;-74
2022/07/28 12:32:36;;;;;;;2.63;0.80;;;;;;;;;;5065024;28;20090;-74
2022/07/28 12:35:03;;;;;;;4.07;0.90;;;;;;;;;;5058895;28;20041;-76
2022/07/28 12:37:29;;;;;;;2.03;0.90;;;;;;;;;;5058230;28;20076;-77
2022/07/28 12:39:56;;;;;;;2.78;1.10;;;;;;;;;;5067651;28;20031;-76
2022/07/28 12:42:24;;;;;;;5.25;1.00;;;;;;;;;;5039637;28;20115;-78
2022/07/28 12:44:52;;;;;;;2.00;0.90;;;;;;;;;;5075142;28;20054;-76
2022/07/28 12:47:26;;;;;;;2.25;0.90;;;;;;;;;;5084193;28;20464;-77
2022/07/28 12:50:09;;;;;;;1.83;1.00;;;;;;;;;;5065943;28;20696;-75
2022/07/28 12:52:36;;;;;;;2.20;0.90;;;;;;;;;;5058277;28;20048;-74
2022/07/28 12:55:02;;;;;;;2.95;0.93;;;;;;;;;;5095816;28;20032;-75
2022/07/28 12:57:46;;;;;;;1.75;0.80;;;;;;;;;;5070980;28;20566;-78
2022/07/28 13:00:14;;;;;;;4.88;0.95;;;;;;;;;;5079826;28;20035;-75
2022/07/28 13:02:40;;;;;;;4.13;0.90;;;;;;;;;;5084628;28;20067;-78
2022/07/28 13:05:06;;;;;;;2.13;0.90;;;;;;;;;;5077760;28;20123;-74
2022/07/28 13:07:33;;;;;;;7.43;2.30;;;;;;;;;;5100419;28;20044;-76
2022/07/28 13:10:09;;;;;;;3.10;1.00;;;;;;;;;;5089765;28;20109;-80
2022/07/28 13:12:35;;;;;;;4.68;1.00;;;;;;;;;;5072210;28;20036;-77
2022/07/28 13:15:13;;;;;;;5.00;1.00;;;;;;;;;;5058787;28;20044;-76
2022/07/28 13:17:50;;;;;;;2.88;1.00;;;;;;;;;;5072947;28;20131;-74
2022/07/28 13:20:17;;;;;;;2.08;0.88;;;;;;;;;;5095569;28;20606;-75
2022/07/28 13:22:46;;;;;;;2.72;0.95;;;;;;;;;;5084679;28;20092;-75
2022/07/28 13:25:13;;;;;;;3.20;0.80;;;;;;;;;;5068600;28;20035;-75
2022/07/28 13:27:39;;;;;;;3.92;1.00;;;;;;;;;;5076533;28;20040;-73
2022/07/28 13:30:06;;;;;;;2.15;0.90;;;;;;;;;;5071275;28;20373;-76
2022/07/28 13:32:32;;;;;;;2.00;0.80;;;;;;;;;;5082476;28;20504;-72
2022/07/28 13:34:59;;;;;;;3.47;1.10;;;;;;;;;;5100748;28;20040;-69
2022/07/28 13:37:25;;;;;;;1.77;0.80;;;;;;;;;;5085459;28;20552;-70
2022/07/28 13:39:51;;;;;;;11.52;1.20;;;;;;;;;;5089434;28;20040;-75
2022/07/28 13:42:17;;;;;;;3.15;0.80;;;;;;;;;;5088128;28;20035;-75
2022/07/28 13:44:43;;;;;;;2.65;0.93;;;;;;;;;;5084596;28;20036;-76
2022/07/28 13:47:09;;;;;;;3.05;0.90;;;;;;;;;;5076140;28;20051;-71
2022/07/28 13:49:38;;;;;;;3.45;1.00;;;;;;;;;;5070890;28;20048;-73
2022/07/28 13:52:05;;;;;;;4.18;1.13;;;;;;;;;;5057613;28;20090;-73
2022/07/28 13:54:31;;;;;;;2.22;0.80;;;;;;;;;;5074004;28;20059;-71
2022/07/28 13:56:58;;;;;;;2.83;1.00;;;;;;;;;;5069880;28;20546;-71
2022/07/28 13:59:24;;;;;;;5.18;0.93;;;;;;;;;;5069083;28;20516;-68
2022/07/28 14:01:50;;;;;;;4.20;0.98;;;;;;;;;;5085644;28;20040;-70
2022/07/28 14:04:17;;;;;;;3.13;0.88;;;;;;;;;;5051572;28;20036;-71
2022/07/28 14:06:43;;;;;;;2.72;0.90;;;;;;;;;;5060902;28;20083;-72
2022/07/28 14:09:10;;;;;;;3.72;0.88;;;;;;;;;;5086859;28;20052;-70
2022/07/28 14:11:36;;;;;;;2.05;0.80;;;;;;;;;;5056881;28;20055;-71
2022/07/28 14:14:03;;;;;;;3.50;1.23;;;;;;;;;;5075848;28;20052;-73
2022/07/28 14:16:30;;;;;;;8.80;1.00;;;;;;;;;;5079923;28;20082;-74
2022/07/28 14:18:57;;;;;;;4.80;0.90;;;;;;;;;;5091800;28;20039;-83
2022/07/28 14:21:23;;;;;;;3.85;0.88;;;;;;;;;;5074425;28;20040;-73
2022/07/28 14:23:49;;;;;;;3.75;0.90;;;;;;;;;;5099745;28;20454;-79
2022/07/28 14:26:16;;;;;;;2.80;0.98;;;;;;;;;;5076806;28;20136;-72
2022/07/28 14:28:42;;;;;;;2.45;0.80;;;;;;;;;;5079338;28;20577;-75
2022/07/28 14:31:08;;;;;;;5.57;1.00;;;;;;;;;;5083849;28;20038;-74
2022/07/28 14:33:34;;;;;;;2.65;0.80;;;;;;;;;;5073366;28;20036;-70
2022/07/28 14:36:00;;;;;;;4.93;0.90;;;;;;;;;;5074030;28;20047;-75
2022/07/28 14:38:26;;;;;;;4.57;0.90;;;;;;;;;;5073562;28;20060;-77
2022/07/28 14:40:52;;;;;;;3.63;0.95;;;;;;;;;;5058317;28;20032;-72
2022/07/28 14:43:19;;;;;;;4.40;0.85;;;;;;;;;;5093717;28;20078;-74
2022/07/28 14:45:45;;;;;;;3.40;0.70;;;;;;;;;;5063990;28;20043;-73
2022/07/28 14:48:11;;;;;;;3.03;0.90;;;;;;;;;;5082459;28;20416;-82
2022/07/28 14:50:37;;;;;;;2.85;1.00;;;;;;;;;;5084116;28;20039;-74